Аэропорт: Елизово. Петропавловск-Камчатский

ICAO: UHPP

METAR:
2020-10-19 14:30:00
UHPP 191430Z 01002MPS 340V040 9999 NSC 06/02 Q1010 R34L/190060 NOSIG RMK QFE754/1006
METAR:
2020-10-19 13:40:00
TAF UHPP 191340Z 1915/2021 36003G12MPS 9999 BKN030CB TEMPO 1915/1922 0700 -SHRA FG VV002 FM200900 28005MPS 9999 NSC